createdAt,value
2019-04-03T00:01:31.206Z,18.50
2019-04-03T00:05:50.136Z,18.40
2019-04-03T00:10:09.533Z,18.40
2019-04-03T00:14:28.923Z,18.40
2019-04-03T00:18:48.502Z,18.40
2019-04-03T00:23:08.662Z,18.30
2019-04-03T00:27:28.493Z,18.30
2019-04-03T00:31:48.199Z,18.20
2019-04-03T00:36:07.209Z,18.30
2019-04-03T00:40:27.898Z,18.20
2019-04-03T00:44:46.304Z,18.20
2019-04-03T00:49:06.105Z,18.20
2019-04-03T00:53:27.334Z,18.10
2019-04-03T00:57:46.040Z,18.10
2019-04-03T01:02:04.499Z,18.00
2019-04-03T01:06:24.960Z,18.00
2019-04-03T01:10:43.246Z,18.00
2019-04-03T01:15:02.345Z,17.90
2019-04-03T01:19:26.046Z,17.90
2019-04-03T01:23:44.748Z,17.90
2019-04-03T01:28:03.526Z,17.90
2019-04-03T01:32:23.084Z,17.90
2019-04-03T01:36:42.928Z,17.90
2019-04-03T01:41:02.700Z,17.80
2019-04-03T01:45:25.403Z,17.70
2019-04-03T01:49:43.581Z,17.60
2019-04-03T01:54:02.957Z,17.40
2019-04-03T01:58:25.759Z,17.30
2019-04-03T02:02:45.373Z,17.10
2019-04-03T02:07:04.914Z,17.00
2019-04-03T02:11:25.653Z,16.90
2019-04-03T02:15:45.812Z,16.80
2019-04-03T02:20:04.460Z,16.60
2019-04-03T02:24:23.177Z,16.60
2019-04-03T02:28:42.339Z,16.50
2019-04-03T02:33:00.598Z,16.40
2019-04-03T02:37:20.222Z,16.40
2019-04-03T02:41:39.071Z,16.40
2019-04-03T02:45:57.565Z,16.40
2019-04-03T02:50:25.720Z,16.30
2019-04-03T02:54:44.899Z,16.30
2019-04-03T02:59:03.402Z,16.20
2019-04-03T03:03:22.824Z,16.10
2019-04-03T03:07:41.992Z,16.00
2019-04-03T03:12:02.754Z,15.80
2019-04-03T03:16:21.804Z,15.70
2019-04-03T03:20:41.751Z,15.60
2019-04-03T03:25:02.299Z,15.40
2019-04-03T03:29:26.430Z,15.40
2019-04-03T03:33:42.536Z,15.30
2019-04-03T03:38:04.678Z,15.20
2019-04-03T03:42:22.957Z,15.10
2019-04-03T03:46:43.065Z,15.00
2019-04-03T03:51:03.681Z,15.00
2019-04-03T03:55:25.639Z,14.90
2019-04-03T03:59:44.913Z,14.90
2019-04-03T04:04:04.939Z,14.80
2019-04-03T04:08:23.296Z,14.80
2019-04-03T04:12:43.986Z,14.70
2019-04-03T04:17:02.620Z,14.70
2019-04-03T04:21:23.318Z,14.60
2019-04-03T04:25:44.375Z,14.60
2019-04-03T04:30:03.530Z,14.60
2019-04-03T04:34:23.135Z,14.60
2019-04-03T04:38:42.890Z,14.60
2019-04-03T04:43:07.664Z,14.60
2019-04-03T04:47:28.314Z,14.60
2019-04-03T04:51:46.670Z,14.60
2019-04-03T04:56:06.777Z,14.60
2019-04-03T05:00:35.071Z,14.60
2019-04-03T05:04:55.895Z,14.50
2019-04-03T05:09:13.821Z,14.50
2019-04-03T05:13:33.784Z,14.50
2019-04-03T05:17:54.155Z,14.40
2019-04-03T05:22:13.842Z,14.40
2019-04-03T05:26:32.827Z,14.40
2019-04-03T05:30:51.282Z,14.40
2019-04-03T05:35:09.765Z,14.40
2019-04-03T05:39:29.385Z,14.40
2019-04-03T05:43:49.010Z,14.40
2019-04-03T05:48:12.615Z,14.40
2019-04-03T05:52:33.157Z,14.40
2019-04-03T05:56:53.591Z,14.40
2019-04-03T06:01:13.472Z,14.40
2019-04-03T06:05:33.432Z,14.50
2019-04-03T06:09:53.851Z,14.50
2019-04-03T06:14:15.018Z,14.50
2019-04-03T06:18:35.510Z,14.60
2019-04-03T06:22:53.751Z,14.60
2019-04-03T06:27:14.116Z,14.70
2019-04-03T06:31:35.797Z,14.80
2019-04-03T06:35:54.216Z,14.80
2019-04-03T06:40:13.122Z,14.80
2019-04-03T06:44:33.844Z,14.80
2019-04-03T06:48:55.203Z,14.80
2019-04-03T06:53:13.643Z,14.70
2019-04-03T06:57:33.168Z,14.70
2019-04-03T07:01:52.872Z,14.60
2019-04-03T07:06:14.734Z,14.70
2019-04-03T07:10:36.169Z,14.80
2019-04-03T07:14:54.443Z,15.10
2019-04-03T07:19:13.003Z,15.30
2019-04-03T07:23:31.304Z,15.50
2019-04-03T07:27:50.096Z,15.70
2019-04-03T07:32:10.276Z,15.90
2019-04-03T07:36:28.952Z,16.10
2019-04-03T07:40:51.059Z,16.40
2019-04-03T07:45:08.984Z,16.80
2019-04-03T07:49:27.387Z,17.20
2019-04-03T07:53:46.152Z,17.50
2019-04-03T07:58:06.221Z,17.90
2019-04-03T08:02:24.672Z,18.30
2019-04-03T08:06:43.335Z,18.90
2019-04-03T08:11:02.546Z,19.80
2019-04-03T08:15:20.974Z,20.70
2019-04-03T08:19:39.289Z,21.20
2019-04-03T08:23:58.195Z,21.30
2019-04-03T08:28:16.966Z,21.20
2019-04-03T08:32:35.612Z,20.80
2019-04-03T08:36:54.213Z,20.40
2019-04-03T08:41:12.554Z,19.90
2019-04-03T08:45:31.034Z,19.40
2019-04-03T08:49:49.349Z,19.00
2019-04-03T08:54:10.239Z,18.60
2019-04-03T08:58:28.931Z,18.30
2019-04-03T09:02:47.480Z,18.00
2019-04-03T09:07:05.842Z,17.80
2019-04-03T09:11:24.002Z,17.70
2019-04-03T09:15:44.144Z,17.50
2019-04-03T09:20:02.521Z,17.40
2019-04-03T09:24:21.638Z,17.30
2019-04-03T09:28:41.949Z,17.20
2019-04-03T09:33:01.608Z,17.10
2019-04-03T09:37:20.738Z,17.10
2019-04-03T09:41:38.988Z,17.10
2019-04-03T09:45:59.384Z,17.20
2019-04-03T09:50:17.469Z,17.20
2019-04-03T09:54:35.608Z,17.60
2019-04-03T09:58:55.982Z,18.00
2019-04-03T10:03:14.067Z,18.40
2019-04-03T10:07:35.408Z,18.70
2019-04-03T10:11:54.259Z,19.10
2019-04-03T10:16:16.386Z,19.60
2019-04-03T10:20:35.681Z,19.90
2019-04-03T10:24:54.177Z,20.20
2019-04-03T10:29:12.472Z,20.50
2019-04-03T10:33:32.536Z,21.00
2019-04-03T10:37:52.288Z,21.40
2019-04-03T10:42:10.683Z,21.70
2019-04-03T10:46:29.074Z,21.70
2019-04-03T10:50:48.608Z,21.90
2019-04-03T10:55:07.577Z,22.10
2019-04-03T10:59:25.820Z,22.50
2019-04-03T11:03:44.971Z,23.10
2019-04-03T11:08:03.353Z,23.80
2019-04-03T11:12:22.361Z,24.20
2019-04-03T11:16:41.268Z,24.40
2019-04-03T11:21:00.304Z,24.50
2019-04-03T11:25:19.837Z,24.90
2019-04-03T11:29:40.872Z,25.30
2019-04-03T11:33:59.251Z,25.50
2019-04-03T11:38:26.230Z,25.40
2019-04-03T11:42:37.732Z,25.30
2019-04-03T11:46:57.444Z,25.20
2019-04-03T11:51:15.879Z,25.00
2019-04-03T11:55:34.262Z,24.80
2019-04-03T11:59:55.408Z,24.70
2019-04-03T12:04:14.263Z,24.40
2019-04-03T12:08:33.890Z,24.20
2019-04-03T12:12:54.090Z,24.00
2019-04-03T12:17:13.631Z,23.80
2019-04-03T12:21:32.251Z,23.80
2019-04-03T12:25:51.231Z,23.70
2019-04-03T12:30:12.310Z,23.60
2019-04-03T12:34:31.056Z,23.40
2019-04-03T12:38:49.309Z,23.00
2019-04-03T12:43:07.591Z,22.20
2019-04-03T12:47:28.331Z,21.30
2019-04-03T12:51:47.082Z,20.50
2019-04-03T12:56:06.651Z,19.80
2019-04-03T13:00:25.950Z,19.30
2019-04-03T13:04:44.252Z,18.80
2019-04-03T13:09:02.835Z,18.50
2019-04-03T13:13:22.759Z,18.50
2019-04-03T13:17:43.751Z,18.60
2019-04-03T13:22:02.592Z,18.80
2019-04-03T13:26:24.091Z,18.80
2019-04-03T13:30:43.472Z,18.80
2019-04-03T13:35:06.370Z,18.70
2019-04-03T13:39:24.761Z,18.60
2019-04-03T13:43:44.075Z,18.50
2019-04-03T13:48:02.562Z,18.30
2019-04-03T13:52:21.187Z,18.10
2019-04-03T13:56:43.088Z,18.00
2019-04-03T14:01:02.995Z,17.90
2019-04-03T14:05:22.137Z,17.80
2019-04-03T14:09:42.835Z,17.60
2019-04-03T14:14:01.337Z,17.50
2019-04-03T14:18:20.078Z,17.40
2019-04-03T14:22:39.781Z,17.20
2019-04-03T14:26:58.286Z,17.10
2019-04-03T14:31:17.876Z,16.90
2019-04-03T14:35:49.338Z,16.70
2019-04-03T14:39:56.704Z,16.50
2019-04-03T14:44:15.028Z,16.30
2019-04-03T14:48:34.126Z,16.10
2019-04-03T14:52:52.519Z,16.00
2019-04-03T14:57:19.744Z,15.80
2019-04-03T15:01:32.273Z,15.60
2019-04-03T15:05:52.371Z,15.40
2019-04-03T15:10:11.836Z,15.20
2019-04-03T15:14:30.167Z,14.90
2019-04-03T15:18:49.193Z,14.70
2019-04-03T15:23:07.675Z,14.50
2019-04-03T15:27:28.136Z,14.30
2019-04-03T15:31:48.315Z,14.20
2019-04-03T15:36:07.164Z,14.00
2019-04-03T15:40:26.889Z,13.90
2019-04-03T15:44:45.541Z,13.60
2019-04-03T15:49:04.302Z,13.40
2019-04-03T15:53:24.966Z,13.20
2019-04-03T15:57:44.746Z,13.00
2019-04-03T16:02:03.298Z,12.90
2019-04-03T16:06:23.348Z,12.70
2019-04-03T16:10:45.211Z,12.60
2019-04-03T16:15:08.518Z,12.40
2019-04-03T16:19:25.940Z,12.10
2019-04-03T16:23:46.501Z,11.70
2019-04-03T16:28:06.820Z,11.40
2019-04-03T16:32:27.731Z,11.10
2019-04-03T16:36:48.749Z,10.90
2019-04-03T16:41:10.139Z,10.60
2019-04-03T16:45:31.497Z,10.50
2019-04-03T16:49:52.041Z,10.40
2019-04-03T16:54:12.657Z,10.30
2019-04-03T16:58:31.620Z,10.30
2019-04-03T17:02:50.487Z,10.20
2019-04-03T17:07:10.288Z,10.20
2019-04-03T17:11:30.835Z,10.20
2019-04-03T17:15:49.226Z,10.20
2019-04-03T17:20:09.919Z,10.20
2019-04-03T17:24:40.980Z,10.10
2019-04-03T17:29:01.870Z,10.10
2019-04-03T17:33:10.846Z,10.20
2019-04-03T17:37:30.364Z,10.20
2019-04-03T17:41:52.541Z,10.20
2019-04-03T17:46:11.410Z,10.20
2019-04-03T17:50:30.310Z,10.30
2019-04-03T17:54:49.705Z,10.30
2019-04-03T17:59:09.351Z,10.30
2019-04-03T18:03:29.272Z,10.30
2019-04-03T18:07:49.060Z,10.30
2019-04-03T18:12:08.691Z,10.30
2019-04-03T18:16:29.513Z,10.20
2019-04-03T18:20:49.613Z,10.20
2019-04-03T18:25:14.985Z,10.20
2019-04-03T18:29:37.330Z,10.30
2019-04-03T18:33:56.751Z,10.30
2019-04-03T18:38:16.307Z,10.40
2019-04-03T18:42:34.837Z,10.40
2019-04-03T18:46:57.927Z,10.50
2019-04-03T18:51:20.296Z,10.50
2019-04-03T18:55:39.190Z,10.50
2019-04-03T19:00:00.493Z,10.50
2019-04-03T19:04:17.710Z,10.60
2019-04-03T19:08:36.201Z,10.60
2019-04-03T19:12:54.979Z,10.60
2019-04-03T19:17:15.774Z,10.60
2019-04-03T19:21:34.127Z,10.60
2019-04-03T19:25:55.125Z,10.60
2019-04-03T19:30:15.908Z,10.60
2019-04-03T19:34:36.458Z,10.50
2019-04-03T19:38:56.994Z,10.60
2019-04-03T19:43:22.963Z,10.50
2019-04-03T19:47:41.644Z,10.50
2019-04-03T19:52:09.005Z,10.60
2019-04-03T19:56:30.387Z,10.50
2019-04-03T20:00:49.657Z,10.50
2019-04-03T20:05:09.926Z,10.50
2019-04-03T20:09:33.162Z,10.60
2019-04-03T20:13:54.663Z,10.50
2019-04-03T20:18:12.624Z,10.50
2019-04-03T20:22:33.812Z,10.50
2019-04-03T20:26:53.652Z,10.50
2019-04-03T20:31:12.584Z,10.40
2019-04-03T20:35:31.272Z,10.30
2019-04-03T20:39:50.045Z,10.20
2019-04-03T20:44:08.361Z,10.20
2019-04-03T20:48:28.379Z,10.10
2019-04-03T20:52:50.187Z,10.00
2019-04-03T20:57:08.956Z,10.00
2019-04-03T21:01:36.364Z,9.90
2019-04-03T21:05:56.334Z,9.90
2019-04-03T21:10:17.695Z,9.80
2019-04-03T21:14:37.634Z,9.80
2019-04-03T21:18:59.644Z,9.80
2019-04-03T21:23:19.700Z,9.80
2019-04-03T21:27:40.089Z,9.70
2019-04-03T21:32:04.932Z,9.70
2019-04-03T21:36:26.860Z,9.70
2019-04-03T21:40:47.478Z,9.70
2019-04-03T21:45:07.594Z,9.70
2019-04-03T21:49:29.803Z,9.70
2019-04-03T21:53:48.133Z,9.80
2019-04-03T21:58:08.879Z,9.80
2019-04-03T22:02:28.971Z,9.80
2019-04-03T22:06:47.803Z,9.90
2019-04-03T22:11:08.646Z,9.90
2019-04-03T22:15:28.490Z,9.90
2019-04-03T22:19:47.170Z,10.00
2019-04-03T22:24:06.886Z,10.00
2019-04-03T22:28:25.761Z,10.00
2019-04-03T22:32:45.214Z,10.10
2019-04-03T22:37:04.522Z,10.10
2019-04-03T22:41:23.884Z,10.10
2019-04-03T22:45:42.714Z,10.10
2019-04-03T22:50:04.908Z,10.10
2019-04-03T22:54:23.416Z,10.10
2019-04-03T22:58:44.158Z,10.10
2019-04-03T23:03:03.410Z,10.10
2019-04-03T23:07:23.036Z,10.10
2019-04-03T23:11:42.008Z,10.10
2019-04-03T23:16:01.761Z,10.10
2019-04-03T23:20:22.157Z,10.20
2019-04-03T23:24:40.375Z,10.20
2019-04-03T23:29:01.002Z,10.20
2019-04-03T23:33:19.793Z,10.20
2019-04-03T23:37:38.719Z,10.20
2019-04-03T23:41:57.469Z,10.10
2019-04-03T23:46:16.241Z,10.10
2019-04-03T23:50:34.682Z,10.00
2019-04-03T23:54:56.731Z,9.90
2019-04-03T23:59:15.548Z,9.90
